Flight Track Log - Related Links

Times and Time Zones

All times are in EDT time to prevent confusion due to time zone crossing. See the SWA1046 flight status page for this flight to view local times or setup timezone preferences in your user account.

Time Position Orientation Groundspeed Altitude Reporting Facility
EDT Latitude Longitude Course Direction KTS MPH feet Rate Location/Type
Thu 02:23:56 PM 38.7808 -90.4422 263° West 200 230 4,000  Level Kansas City Center
Thu 02:24:56 PM 38.7625 -90.5161 252° West 228 262 6,600 3,171 Climbing Kansas City Center
Thu 02:25:59 PM 38.7100 -90.5769 222° Southwest 255 293 10,500 3,095 Climbing Kansas City Center
Thu 02:27:02 PM 38.6453 -90.6497 221° Southwest 305 351 13,100 3,242 Climbing Kansas City Center
Thu 02:28:03 PM 38.5583 -90.7444 220° Southwest 336 387 17,200 3,273 Climbing Kansas City Center
Thu 02:29:00 PM 38.3116 -90.8997 224° Southwest  Level Estimated
Thu 02:29:03 PM 38.4822 -90.8281 221° Southwest 350 403 19,700  Level Kansas City Center
Thu 02:30:07 PM 38.4008 -90.9156 220° Southwest 372 428 22,500 2,032 Climbing Kansas City Center
Thu 02:31:07 PM 38.3169 -91.0056 220° Southwest 392 451 23,900 1,839 Climbing Kansas City Center
Thu 02:32:11 PM 38.2344 -91.0969 221° Southwest 394 453 26,300 2,160 Climbing Kansas City Center
Thu 02:33:12 PM 38.1467 -91.1908 220° Southwest 399 459 28,400 1,776 Climbing Kansas City Center
Thu 02:34:16 PM 38.0414 -91.3028 220° Southwest 407 468 30,000 768 Climbing Kansas City Center
Thu 02:35:17 PM 37.9558 -91.3956 221° Southwest 404 465 30,000  Level Kansas City Center
Thu 02:36:18 PM 37.8703 -91.4872 220° Southwest 402 463 30,000  Level Kansas City Center
Thu 02:37:21 PM 37.7850 -91.5797 221° Southwest 401 461 30,000  Level Kansas City Center
Thu 02:38:24 PM 37.6992 -91.6711 220° Southwest 401 461 30,000  Level Kansas City Center
Thu 02:39:25 PM 37.6117 -91.7636 220° Southwest 403 464 30,000  Level Kansas City Center
Thu 02:40:28 PM 37.5289 -91.8592 222° Southwest 402 463 30,000  Level Kansas City Center
Thu 02:41:29 PM 37.4486 -91.9547 223° Southwest 397 457 30,000  Level Kansas City Center
Thu 02:42:32 PM 37.3514 -92.0697 223° Southwest 396 456 30,000  Level Kansas City Center
Thu 02:43:33 PM 37.2706 -92.1642 223° Southwest 395 455 30,000  Level Kansas City Center
Thu 02:44:37 PM 37.1889 -92.2583 223° Southwest 396 456 30,000  Level Kansas City Center
Thu 02:45:38 PM 37.1078 -92.3519 223° Southwest 395 455 30,000  Level Kansas City Center
Thu 02:46:39 PM 37.0258 -92.4467 223° Southwest 398 458 30,000  Level Kansas City Center
Thu 02:47:42 PM 36.9442 -92.5400 222° Southwest 396 456 30,000  Level Kansas City Center
Thu 02:48:43 PM 36.8614 -92.6344 222° Southwest 400 460 30,000  Level Kansas City Center
Thu 02:49:44 PM 36.7600 -92.7444 221° Southwest 400 460 30,000  Level Kansas City Center
Thu 02:50:45 PM 36.6758 -92.8406 222° Southwest 401 461 30,000  Level Memphis Center
Thu 02:51:45 PM 36.5908 -92.9283 220° Southwest 401 461 30,000  Level Memphis Center
Thu 02:52:46 PM 36.5075 -93.0214 222° Southwest 396 456 30,000  Level Memphis Center
Thu 02:53:45 PM 36.4158 -93.1136 219° Southwest 408 470 30,000  Level Memphis Center
Thu 02:54:45 PM 36.3306 -93.2036 220° Southwest 413 475 30,000  Level Memphis Center
Thu 02:55:45 PM 36.2469 -93.2958 222° Southwest 413 475 30,000  Level Memphis Center
Thu 02:56:46 PM 36.1700 -93.3753 220° Southwest 413 475 30,000  Level Memphis Center
Thu 02:57:45 PM 36.0844 -93.4672 221° Southwest 407 468 30,000  Level Memphis Center
Thu 02:58:45 PM 36.0008 -93.5564 221° Southwest 407 468 30,000  Level Memphis Center
Thu 02:59:46 PM 35.9172 -93.6456 221° Southwest 407 468 30,000  Level Memphis Center
Thu 03:00:45 PM 35.8336 -93.7342 221° Southwest 401 461 30,000  Level Memphis Center
Thu 03:01:45 PM 35.7519 -93.8231 221° Southwest 401 461 30,000  Level Memphis Center
Thu 03:02:45 PM 35.6681 -93.9089 220° Southwest 395 455 30,000  Level Memphis Center
Thu 03:03:45 PM 35.5842 -93.9997 221° Southwest 395 455 30,000  Level Memphis Center
Thu 03:04:45 PM 35.4981 -94.0906 221° Southwest 402 463 30,000  Level Memphis Center
Thu 03:05:45 PM 35.4142 -94.1758 220° Southwest 396 456 30,000  Level Memphis Center
Thu 03:06:46 PM 35.3322 -94.2636 221° Southwest 396 456 30,000  Level Memphis Center
Thu 03:07:45 PM 35.2458 -94.3514 220° Southwest 396 456 30,000  Level Memphis Center
Thu 03:08:45 PM 35.1639 -94.4389 221° Southwest 396 456 30,000  Level Memphis Center
Thu 03:09:45 PM 35.0731 -94.5333 220° Southwest 396 456 30,000  Level Memphis Center
Thu 03:10:30 PM 34.9994 -94.6028 218° Southwest 399 459 30,000  Level Fort Worth Center
Thu 03:11:30 PM 34.9242 -94.6861 222° Southwest 392 451 30,000  Level Fort Worth Center
Thu 03:12:30 PM 34.8383 -94.7700 219° Southwest 392 451 30,000  Level Fort Worth Center
Thu 03:13:31 PM 34.7503 -94.8611 220° Southwest 404 465 30,000  Level Fort Worth Center
Thu 03:14:30 PM 34.6497 -94.9322 210° Southwest 412 474 30,000 -50 Level Fort Worth Center
Thu 03:15:30 PM 34.5444 -94.9908 205° Southwest 412 474 29,900 -843 Descending Fort Worth Center
Thu 03:16:31 PM 34.4392 -95.0517 205° Southwest 419 482 28,300 -1,750 Descending Fort Worth Center
Thu 03:17:30 PM 34.3317 -95.1097 204° Southwest 425 489 26,400 -2,067 Descending Fort Worth Center
Thu 03:18:30 PM 34.2414 -95.1978 219° Southwest 426 490 24,200 -1,190 Descending Fort Worth Center
Thu 03:19:31 PM 34.1678 -95.2875 225° Southwest 405 466 24,000 -100 Descending Fort Worth Center
Thu 03:20:30 PM 34.0961 -95.3694 223° Southwest 383 441 24,000  Level Fort Worth Center
Thu 03:21:30 PM 34.0244 -95.4564 225° Southwest 368 423 24,000 2,975 Level Fort Worth Center
Thu 03:22:31 PM 33.9569 -95.5331 223° Southwest 353 406 30,000 -1,350 Climbing Fort Worth Center
Thu 03:23:30 PM 33.8953 -95.6067 225° Southwest 339 390 21,300 -5,546 Descending Fort Worth Center
Thu 03:24:30 PM 33.8317 -95.6806 224° Southwest 325 374 19,000 -1,934 Descending Fort Worth Center
Thu 03:25:31 PM 33.7681 -95.7544 224° Southwest 320 368 17,400 -1,700 Descending Fort Worth Center
Thu 03:26:30 PM 33.7083 -95.8256 225° Southwest 310 357 15,600 -1,815 Descending Fort Worth Center
Thu 03:27:30 PM 33.6467 -95.8939 223° Southwest 310 357 13,800 -1,686 Descending Fort Worth Center
Thu 03:28:31 PM 33.5869 -95.9622 224° Southwest 310 357 12,200 -1,700 Descending Fort Worth Center
Thu 03:29:30 PM 33.5272 -96.0306 224° Southwest 305 351 10,400 -1,109 Descending Fort Worth Center
Thu 03:30:30 PM 33.4714 -96.0936 223° Southwest 300 345 10,000 -198 Descending Fort Worth Center
Thu 03:31:31 PM 33.4178 -96.1567 224° Southwest 284 327 10,000 -250 Level Fort Worth Center
Thu 03:32:30 PM 33.3622 -96.2197 223° Southwest 278 320 9,500 -504 Descending Fort Worth Center
Thu 03:33:30 PM 33.3083 -96.2825 224° Southwest 278 320 9,000 -248 Descending Fort Worth Center
Thu 03:34:31 PM 33.2589 -96.3428 226° Southwest 268 308 9,000 -200 Level Fort Worth Center
Thu 03:35:30 PM 33.2156 -96.4103 233° Southwest 268 308 8,600 -655 Descending Fort Worth Center
Thu 03:36:30 PM 33.1681 -96.4803 231° Southwest 268 308 7,700 -1,000 Descending Fort Worth Center
Thu 03:37:30 PM 33.1331 -96.5600 242° Southwest 268 308 6,600 -1,050 Descending Fort Worth Center
Thu 03:38:30 PM 33.0983 -96.6397 243° Southwest 268 308 5,600 -1,150 Descending Fort Worth Center
Thu 03:39:30 PM 33.0631 -96.7194 242° Southwest 268 308 4,300 -793 Descending Fort Worth Center
Thu 03:40:31 PM 33.0175 -96.7917 233° Southwest 273 314 4,000 -150 Descending Fort Worth Center
Thu 03:41:30 PM 32.9783 -96.8539 233° Southwest 267 307 4,000 -156 Level Fort Worth Center
Thu 03:41:48 PM 32.9667 -96.8667 223° Southwest 216 249 3,800 -1,167 Descending Dallas / Fort Worth TRACON
Thu 03:42:42 PM 32.9333 -96.9000 220° Southwest 192 221 2,600 -1,158 Descending Dallas / Fort Worth TRACON
Thu 03:43:42 PM 32.9000 -96.9000 180° South 142 163 1,600 -947 Descending Dallas / Fort Worth TRACON
Thu 03:44:36 PM 32.8667 -96.8667 140° Southeast 135 155 800 -889 Descending Dallas / Fort Worth TRACON
Thu 03:46:00 PM 32.8471 -96.8518 157° South  Level Estimated
Thu 03:53:00 PM 32.8471 -96.8518 157° South  Level Estimated

Login

Don't have an account? Register now (free) for customized features, flight alerts, and more!